createdAt,value
2019-03-23T00:00:01.659Z,121.77
2019-03-23T00:02:30.074Z,124.00
2019-03-23T00:04:58.520Z,119.10
2019-03-23T00:07:26.945Z,132.30
2019-03-23T00:09:55.389Z,120.23
2019-03-23T00:12:23.813Z,121.87
2019-03-23T00:14:52.257Z,127.07
2019-03-23T00:17:20.665Z,133.50
2019-03-23T00:19:49.114Z,127.87
2019-03-23T00:22:17.541Z,119.40
2019-03-23T00:24:45.984Z,118.90
2019-03-23T00:27:14.444Z,126.80
2019-03-23T00:29:42.892Z,127.00
2019-03-23T00:32:11.313Z,129.27
2019-03-23T00:34:39.757Z,123.10
2019-03-23T00:37:08.264Z,122.77
2019-03-23T00:39:36.704Z,119.03
2019-03-23T00:42:05.194Z,125.20
2019-03-23T00:44:33.643Z,130.73
2019-03-23T00:47:02.063Z,129.20
2019-03-23T00:49:30.528Z,124.33
2019-03-23T00:51:58.962Z,116.33
2019-03-23T00:54:27.403Z,122.30
2019-03-23T00:56:55.829Z,131.37
2019-03-23T00:59:24.278Z,123.07
2019-03-23T01:01:52.695Z,122.73
2019-03-23T01:04:21.143Z,117.03
2019-03-23T01:06:52.368Z,125.37
2019-03-23T01:09:19.924Z,123.47
2019-03-23T01:11:48.369Z,131.17
2019-03-23T01:14:16.864Z,145.23
2019-03-23T01:16:45.308Z,138.43
2019-03-23T01:19:13.718Z,129.50
2019-03-23T01:21:42.168Z,131.10
2019-03-23T01:24:10.607Z,127.77
2019-03-23T01:26:39.052Z,117.90
2019-03-23T01:29:07.473Z,126.33
2019-03-23T01:31:35.929Z,122.77
2019-03-23T01:34:04.353Z,122.60
2019-03-23T01:36:32.804Z,121.67
2019-03-23T01:39:01.230Z,128.20
2019-03-23T01:41:29.671Z,122.70
2019-03-23T01:43:58.090Z,127.43
2019-03-23T01:46:26.540Z,124.70
2019-03-23T01:48:54.959Z,133.20
2019-03-23T01:51:23.408Z,126.90
2019-03-23T01:53:51.832Z,136.90
2019-03-23T01:56:20.276Z,131.83
2019-03-23T01:58:48.705Z,117.33
2019-03-23T02:01:17.175Z,116.73
2019-03-23T02:03:45.590Z,132.47
2019-03-23T02:06:14.041Z,131.03
2019-03-23T02:08:42.463Z,120.97
2019-03-23T02:11:10.980Z,119.27
2019-03-23T02:13:39.403Z,120.03
2019-03-23T02:16:07.848Z,97.27
2019-03-23T02:18:36.336Z,138.07
2019-03-23T02:21:04.856Z,610.17
2019-03-23T02:23:33.275Z,226.80
2019-03-23T02:26:01.799Z,318.57
2019-03-23T02:28:30.291Z,96.23
2019-03-23T02:30:58.752Z,116.00
2019-03-23T02:33:27.196Z,83.63
2019-03-23T02:35:55.631Z,263.87
2019-03-23T02:38:24.037Z,360.73
2019-03-23T02:40:52.478Z,124.70
2019-03-23T02:43:20.890Z,85.27
2019-03-23T02:45:49.361Z,413.53
2019-03-23T02:48:17.769Z,341.40
2019-03-23T02:50:46.214Z,482.07
2019-03-23T02:53:14.634Z,268.17
2019-03-23T02:55:43.072Z,335.03
2019-03-23T02:58:11.489Z,76.20
2019-03-23T03:00:39.943Z,230.10
2019-03-23T03:03:08.366Z,210.43
2019-03-23T03:05:36.782Z,139.50
2019-03-23T03:08:05.239Z,82.17
2019-03-23T03:10:40.469Z,172.43
2019-03-23T03:13:09.065Z,134.73
2019-03-23T03:15:37.478Z,56.43
2019-03-23T03:18:06.963Z,82.93
2019-03-23T03:20:35.473Z,288.83
2019-03-23T03:23:03.967Z,237.17
2019-03-23T03:25:32.393Z,458.83
2019-03-23T03:28:00.853Z,112.37
2019-03-23T03:30:29.292Z,346.93
2019-03-23T03:32:57.713Z,365.13
2019-03-23T03:35:26.132Z,258.03
2019-03-23T03:37:56.944Z,426.80
2019-03-23T03:40:24.745Z,555.63
2019-03-23T03:42:53.201Z,189.83
2019-03-23T03:45:27.152Z,351.23
2019-03-23T03:47:55.602Z,319.23
2019-03-23T03:50:24.109Z,287.37
2019-03-23T03:52:52.559Z,462.77
2019-03-23T03:55:20.980Z,498.93
2019-03-23T03:57:49.468Z,439.67
2019-03-23T04:00:18.057Z,310.60
2019-03-23T04:02:46.509Z,287.57
2019-03-23T04:05:15.010Z,310.20
2019-03-23T04:07:43.526Z,333.67
2019-03-23T04:10:12.094Z,321.37
2019-03-23T04:12:40.543Z,102.40
2019-03-23T04:15:09.999Z,336.57
2019-03-23T04:17:38.419Z,248.53
2019-03-23T04:20:08.317Z,177.10
2019-03-23T04:22:36.730Z,300.37
2019-03-23T04:25:09.775Z,200.80
2019-03-23T04:27:38.197Z,164.73
2019-03-23T04:30:08.838Z,496.70
2019-03-23T04:32:37.261Z,276.77
2019-03-23T04:35:07.359Z,391.20
2019-03-23T04:37:35.781Z,387.93
2019-03-23T04:40:06.225Z,712.83
2019-03-23T04:42:34.643Z,415.90
2019-03-23T04:45:03.264Z,622.37
2019-03-23T04:47:31.685Z,456.93
2019-03-23T04:50:00.415Z,496.87
2019-03-23T04:52:28.927Z,287.47
2019-03-23T04:54:57.373Z,401.63
2019-03-23T04:57:25.803Z,398.80
2019-03-23T04:59:54.250Z,392.43
2019-03-23T05:02:22.671Z,394.17
2019-03-23T05:04:51.118Z,381.53
2019-03-23T05:07:19.548Z,233.03
2019-03-23T05:09:47.992Z,431.87
2019-03-23T05:12:16.416Z,397.03
2019-03-23T05:14:44.864Z,187.17
2019-03-23T05:17:13.357Z,277.23
2019-03-23T05:19:41.810Z,195.13
2019-03-23T05:22:10.229Z,437.53
2019-03-23T05:24:38.678Z,367.57
2019-03-23T05:27:07.108Z,241.13
2019-03-23T05:29:35.572Z,258.10
2019-03-23T05:32:03.992Z,218.63
2019-03-23T05:34:32.414Z,172.63
2019-03-23T05:37:00.867Z,186.80
2019-03-23T05:39:29.285Z,170.73
2019-03-23T05:41:57.728Z,242.37
2019-03-23T05:44:26.159Z,142.40
2019-03-23T05:46:54.599Z,194.43
2019-03-23T05:49:23.025Z,175.80
2019-03-23T05:51:51.542Z,185.43
2019-03-23T05:54:19.965Z,219.20
2019-03-23T05:56:48.407Z,187.63
2019-03-23T05:59:16.828Z,168.13
2019-03-23T06:01:45.269Z,160.17
2019-03-23T06:04:13.691Z,157.47
2019-03-23T06:06:42.143Z,126.93
2019-03-23T06:09:10.562Z,118.43
2019-03-23T06:11:39.000Z,85.43
2019-03-23T06:14:07.424Z,125.27
2019-03-23T06:16:35.877Z,114.17
2019-03-23T06:19:04.297Z,122.70
2019-03-23T06:21:32.754Z,146.13
2019-03-23T06:24:01.174Z,117.47
2019-03-23T06:26:29.625Z,129.77
2019-03-23T06:28:58.053Z,144.10
2019-03-23T06:31:26.506Z,166.10
2019-03-23T06:33:55.193Z,134.50
2019-03-23T06:36:23.642Z,158.23
2019-03-23T06:38:52.075Z,155.73
2019-03-23T06:41:20.526Z,175.37
2019-03-23T06:43:48.945Z,202.83
2019-03-23T06:46:17.390Z,161.27
2019-03-23T06:48:45.852Z,147.10
2019-03-23T06:51:14.272Z,161.77
2019-03-23T06:53:42.686Z,116.07
2019-03-23T06:56:11.133Z,167.93
2019-03-23T06:58:39.552Z,181.03
2019-03-23T07:01:08.011Z,186.17
2019-03-23T07:03:36.430Z,163.60
2019-03-23T07:06:04.923Z,151.50
2019-03-23T07:08:33.374Z,163.03
2019-03-23T07:11:01.793Z,166.70
2019-03-23T07:13:30.235Z,149.13
2019-03-23T07:15:58.654Z,131.70
2019-03-23T07:18:27.104Z,142.07
2019-03-23T07:20:55.530Z,121.27
2019-03-23T07:23:23.975Z,133.70
2019-03-23T07:25:52.389Z,88.83
2019-03-23T07:28:20.838Z,91.97
2019-03-23T07:30:49.268Z,102.87
2019-03-23T07:33:17.712Z,108.90
2019-03-23T07:35:46.132Z,97.30
2019-03-23T07:38:14.590Z,99.20
2019-03-23T07:40:42.993Z,90.37
2019-03-23T07:43:11.454Z,109.23
2019-03-23T07:45:39.867Z,100.73
2019-03-23T07:48:08.318Z,112.40
2019-03-23T07:50:36.737Z,105.07
2019-03-23T07:53:05.191Z,99.73
2019-03-23T07:55:33.616Z,135.70
2019-03-23T07:58:02.066Z,123.07
2019-03-23T08:00:30.492Z,101.20
2019-03-23T08:02:58.951Z,113.37
2019-03-23T08:05:27.354Z,125.27
2019-03-23T08:07:55.813Z,108.07
2019-03-23T08:10:31.431Z,108.17
2019-03-23T08:13:00.110Z,106.23
2019-03-23T08:15:28.626Z,101.07
2019-03-23T08:17:57.115Z,112.27
2019-03-23T08:20:25.735Z,99.90
2019-03-23T08:22:54.788Z,112.40
2019-03-23T08:25:23.246Z,113.93
2019-03-23T08:27:51.665Z,116.80
2019-03-23T08:30:20.114Z,103.23
2019-03-23T08:32:48.539Z,104.43
2019-03-23T08:35:16.985Z,74.87
2019-03-23T08:37:45.405Z,92.27
2019-03-23T08:40:13.996Z,65.53
2019-03-23T08:42:42.423Z,91.40
2019-03-23T08:45:10.942Z,96.67
2019-03-23T08:47:39.436Z,81.67
2019-03-23T08:50:08.354Z,92.67
2019-03-23T08:52:36.774Z,96.03
2019-03-23T08:55:05.859Z,91.80
2019-03-23T08:57:34.272Z,87.53
2019-03-23T09:00:02.715Z,78.00
2019-03-23T09:02:31.130Z,76.03
2019-03-23T09:04:59.576Z,94.13
2019-03-23T09:07:27.992Z,79.70
2019-03-23T09:09:59.460Z,96.57
2019-03-23T09:12:26.645Z,97.17
2019-03-23T09:14:55.089Z,79.10
2019-03-23T09:17:23.502Z,94.27
2019-03-23T09:19:51.951Z,83.27
2019-03-23T09:22:20.378Z,94.33
2019-03-23T09:24:48.818Z,79.73
2019-03-23T09:27:17.244Z,106.23
2019-03-23T09:29:45.686Z,108.10
2019-03-23T09:32:14.110Z,91.43
2019-03-23T09:34:42.569Z,107.30
2019-03-23T09:37:10.987Z,85.63
2019-03-23T09:39:40.756Z,91.13
2019-03-23T09:42:09.172Z,90.90
2019-03-23T09:44:37.595Z,120.80
2019-03-23T09:47:06.118Z,115.90
2019-03-23T09:49:34.535Z,102.97
2019-03-23T09:52:02.978Z,88.63
2019-03-23T09:54:31.396Z,99.20
2019-03-23T09:56:59.842Z,97.37
2019-03-23T09:59:28.264Z,100.97
2019-03-23T10:01:56.779Z,95.77
2019-03-23T10:04:25.206Z,106.63
2019-03-23T10:06:53.645Z,96.50
2019-03-23T10:09:22.064Z,111.57
2019-03-23T10:11:50.511Z,90.97
2019-03-23T10:14:18.926Z,94.30
2019-03-23T10:16:47.368Z,80.07
2019-03-23T10:19:15.784Z,98.90
2019-03-23T10:21:44.236Z,104.93
2019-03-23T10:24:12.651Z,92.83
2019-03-23T10:26:41.103Z,95.40
2019-03-23T10:29:09.524Z,93.57
2019-03-23T10:31:37.984Z,85.57
2019-03-23T10:34:06.401Z,97.60
2019-03-23T10:36:34.850Z,91.37
2019-03-23T10:39:04.946Z,102.00
2019-03-23T10:41:33.391Z,95.43
2019-03-23T10:44:01.822Z,101.73
2019-03-23T10:46:30.268Z,97.20
2019-03-23T10:48:58.687Z,92.37
2019-03-23T10:51:27.138Z,95.20
2019-03-23T10:53:55.564Z,106.67
2019-03-23T10:56:24.017Z,93.77
2019-03-23T10:58:52.430Z,90.07
2019-03-23T11:01:20.863Z,89.50
2019-03-23T11:03:49.301Z,94.40
2019-03-23T11:06:17.788Z,93.43
2019-03-23T11:08:46.228Z,92.47
2019-03-23T11:11:14.654Z,87.40
2019-03-23T11:13:43.095Z,89.10
2019-03-23T11:16:11.521Z,146.03
2019-03-23T11:18:39.972Z,85.20
2019-03-23T11:21:08.393Z,92.30
2019-03-23T11:23:36.844Z,87.50
2019-03-23T11:26:05.331Z,89.70
2019-03-23T11:28:33.777Z,107.43
2019-03-23T11:31:02.226Z,92.63
2019-03-23T11:33:30.676Z,80.93
2019-03-23T11:35:59.101Z,90.63
2019-03-23T11:38:27.550Z,98.17
2019-03-23T11:40:55.973Z,101.07
2019-03-23T11:43:24.426Z,122.43
2019-03-23T11:45:52.844Z,92.23
2019-03-23T11:48:21.291Z,93.97
2019-03-23T11:50:49.716Z,96.50
2019-03-23T11:53:18.162Z,92.47
2019-03-23T11:55:46.583Z,93.13
2019-03-23T11:58:15.157Z,88.30
2019-03-23T12:00:43.576Z,98.00
2019-03-23T12:03:11.997Z,92.93
2019-03-23T12:05:40.449Z,90.83
2019-03-23T12:08:08.870Z,90.77
2019-03-23T12:10:37.376Z,91.57
2019-03-23T12:13:05.800Z,92.60
2019-03-23T12:15:34.245Z,80.90
2019-03-23T12:18:02.716Z,91.63
2019-03-23T12:20:31.269Z,84.97
2019-03-23T12:22:59.770Z,105.73
2019-03-23T12:25:28.229Z,98.70
2019-03-23T12:27:56.645Z,99.97
2019-03-23T12:30:25.101Z,108.53
2019-03-23T12:32:53.528Z,104.27
2019-03-23T12:35:21.970Z,108.33
2019-03-23T12:37:50.403Z,109.90
2019-03-23T12:40:18.853Z,109.20
2019-03-23T12:42:47.282Z,110.27
2019-03-23T12:45:16.072Z,115.50
2019-03-23T12:47:44.509Z,114.13
2019-03-23T12:50:13.106Z,112.93
2019-03-23T12:52:41.530Z,114.70
2019-03-23T12:55:10.059Z,115.83
2019-03-23T12:57:38.620Z,119.30
2019-03-23T13:00:15.305Z,108.57
2019-03-23T13:02:43.724Z,114.97
2019-03-23T13:05:12.243Z,139.77
2019-03-23T13:07:40.737Z,108.67
2019-03-23T13:10:11.829Z,109.87
2019-03-23T13:12:40.257Z,110.77
2019-03-23T13:15:14.151Z,107.90
2019-03-23T13:17:42.576Z,113.47
2019-03-23T13:20:11.516Z,117.37
2019-03-23T13:22:40.114Z,110.83
2019-03-23T13:25:09.409Z,119.27
2019-03-23T13:27:38.004Z,112.70
2019-03-23T13:30:16.825Z,119.40
2019-03-23T13:32:45.317Z,120.10
2019-03-23T13:35:13.807Z,115.03
2019-03-23T13:37:42.260Z,116.77
2019-03-23T13:40:12.119Z,129.80
2019-03-23T13:42:40.646Z,118.10
2019-03-23T13:45:10.203Z,128.67
2019-03-23T13:47:39.662Z,124.27
2019-03-23T13:50:10.535Z,121.63
2019-03-23T13:52:39.043Z,94.10
2019-03-23T13:55:08.001Z,91.53
2019-03-23T13:57:36.527Z,95.17
2019-03-23T14:00:08.332Z,84.87
2019-03-23T14:02:36.856Z,93.37
2019-03-23T14:05:12.263Z,106.17
2019-03-23T14:07:36.137Z,93.87
2019-03-23T14:10:05.802Z,105.73
2019-03-23T14:12:34.262Z,110.00
2019-03-23T14:15:02.686Z,100.00
2019-03-23T14:17:31.144Z,117.03
2019-03-23T14:19:59.651Z,117.10
2019-03-23T14:22:28.110Z,112.60
2019-03-23T14:24:56.537Z,115.90
2019-03-23T14:27:25.053Z,102.90
2019-03-23T14:29:53.484Z,116.83
2019-03-23T14:32:21.944Z,111.60
2019-03-23T14:34:50.369Z,113.40
2019-03-23T14:37:18.819Z,115.33
2019-03-23T14:39:47.265Z,116.20
2019-03-23T14:42:15.726Z,114.73
2019-03-23T14:44:44.147Z,112.67
2019-03-23T14:47:12.594Z,97.63
2019-03-23T14:49:41.019Z,99.43
2019-03-23T14:52:09.469Z,134.00
2019-03-23T14:54:37.900Z,118.30
2019-03-23T14:57:06.361Z,111.03
2019-03-23T14:59:34.777Z,115.87
2019-03-23T15:02:03.209Z,111.10
2019-03-23T15:04:31.662Z,107.27
2019-03-23T15:07:00.091Z,93.87
2019-03-23T15:09:28.548Z,108.30
2019-03-23T15:11:56.972Z,93.07
2019-03-23T15:14:25.423Z,87.80
2019-03-23T15:16:53.836Z,87.27
2019-03-23T15:19:22.286Z,88.63
2019-03-23T15:21:50.715Z,88.67
2019-03-23T15:24:19.164Z,91.60
2019-03-23T15:26:47.581Z,80.07
2019-03-23T15:29:16.024Z,79.17
2019-03-23T15:31:44.463Z,77.80
2019-03-23T15:34:12.905Z,74.80
2019-03-23T15:36:41.329Z,81.20
2019-03-23T15:39:09.778Z,88.33
2019-03-23T15:41:38.205Z,94.67
2019-03-23T15:44:06.655Z,95.47
2019-03-23T15:46:35.069Z,89.07
2019-03-23T15:49:03.520Z,90.80
2019-03-23T15:51:31.938Z,89.30
2019-03-23T15:54:00.358Z,85.33
2019-03-23T15:56:28.801Z,82.70
2019-03-23T15:58:57.215Z,88.60
2019-03-23T16:01:25.670Z,90.67
2019-03-23T16:03:54.098Z,86.23
2019-03-23T16:06:22.605Z,96.47
2019-03-23T16:08:51.022Z,91.67
2019-03-23T16:11:19.474Z,87.57
2019-03-23T16:13:47.963Z,90.50
2019-03-23T16:16:16.413Z,101.57
2019-03-23T16:18:44.902Z,110.07
2019-03-23T16:21:13.365Z,104.73
2019-03-23T16:23:41.774Z,99.20
2019-03-23T16:26:10.233Z,101.87
2019-03-23T16:28:38.649Z,91.40
2019-03-23T16:31:07.095Z,95.53
2019-03-23T16:33:35.516Z,94.53
2019-03-23T16:36:04.036Z,99.57
2019-03-23T16:38:32.469Z,95.37
2019-03-23T16:41:00.913Z,95.40
2019-03-23T16:43:29.339Z,98.20
2019-03-23T16:45:57.796Z,93.93
2019-03-23T16:48:26.220Z,96.47
2019-03-23T16:50:54.695Z,85.20
2019-03-23T16:53:23.077Z,88.77
2019-03-23T16:55:51.515Z,94.00
2019-03-23T16:58:19.933Z,88.57
2019-03-23T17:00:48.383Z,89.67
2019-03-23T17:03:16.803Z,91.90
2019-03-23T17:05:45.250Z,87.90
2019-03-23T17:08:13.661Z,86.07
2019-03-23T17:10:42.109Z,90.70
2019-03-23T17:13:10.665Z,88.20
2019-03-23T17:15:39.145Z,83.67
2019-03-23T17:18:07.591Z,87.87
2019-03-23T17:20:36.075Z,88.97
2019-03-23T17:23:04.522Z,92.43
2019-03-23T17:25:33.003Z,87.80
2019-03-23T17:28:01.447Z,84.83
2019-03-23T17:30:29.860Z,92.33
2019-03-23T17:32:58.305Z,97.83
2019-03-23T17:35:26.722Z,93.10
2019-03-23T17:37:55.175Z,101.03
2019-03-23T17:40:23.601Z,104.60
2019-03-23T17:42:52.048Z,102.40
2019-03-23T17:45:20.474Z,101.73
2019-03-23T17:47:48.924Z,98.90
2019-03-23T17:50:17.412Z,102.07
2019-03-23T17:52:46.130Z,103.13
2019-03-23T17:55:14.547Z,100.17
2019-03-23T17:57:42.996Z,109.73
2019-03-23T18:00:11.855Z,112.73
2019-03-23T18:02:40.311Z,113.17
2019-03-23T18:05:08.873Z,106.57
2019-03-23T18:07:37.388Z,105.10
2019-03-23T18:10:07.390Z,109.13
2019-03-23T18:12:35.833Z,107.10
2019-03-23T18:15:06.798Z,107.83
2019-03-23T18:17:35.333Z,108.30
2019-03-23T18:20:04.197Z,112.30
2019-03-23T18:22:32.643Z,106.43
2019-03-23T18:25:01.083Z,117.53
2019-03-23T18:27:29.490Z,112.57
2019-03-23T18:29:57.939Z,106.73
2019-03-23T18:32:26.429Z,106.43
2019-03-23T18:34:54.882Z,108.33
2019-03-23T18:37:23.293Z,100.50
2019-03-23T18:39:51.737Z,97.37
2019-03-23T18:42:20.223Z,97.73
2019-03-23T18:44:48.671Z,96.00
2019-03-23T18:47:17.088Z,100.70
2019-03-23T18:49:45.529Z,85.60
2019-03-23T18:52:13.951Z,79.00
2019-03-23T18:54:42.463Z,78.40
2019-03-23T18:57:10.886Z,79.30
2019-03-23T18:59:39.341Z,78.90
2019-03-23T19:02:07.758Z,73.23
2019-03-23T19:04:36.203Z,68.77
2019-03-23T19:07:04.689Z,63.47
2019-03-23T19:09:33.134Z,58.93
2019-03-23T19:12:01.542Z,53.40
2019-03-23T19:14:29.990Z,59.67
2019-03-23T19:16:58.432Z,52.73
2019-03-23T19:19:26.872Z,44.43
2019-03-23T19:21:55.289Z,43.77
2019-03-23T19:24:23.726Z,43.17
2019-03-23T19:26:52.130Z,44.03
2019-03-23T19:29:20.576Z,45.20
2019-03-23T19:31:48.988Z,45.30
2019-03-23T19:34:17.436Z,41.47
2019-03-23T19:36:45.857Z,42.63
2019-03-23T19:39:14.296Z,48.00
2019-03-23T19:41:42.713Z,41.97
2019-03-23T19:44:11.213Z,39.87
2019-03-23T19:46:39.625Z,41.97
2019-03-23T19:49:08.038Z,41.20
2019-03-23T19:51:36.479Z,41.37
2019-03-23T19:54:04.891Z,43.33
2019-03-23T19:56:33.331Z,39.40
2019-03-23T19:59:01.745Z,40.30
2019-03-23T20:01:30.185Z,38.37
2019-03-23T20:03:58.609Z,48.30
2019-03-23T20:06:27.115Z,39.00
2019-03-23T20:08:55.535Z,45.80
2019-03-23T20:11:24.008Z,42.27
2019-03-23T20:13:58.774Z,49.80
2019-03-23T20:16:22.631Z,44.83
2019-03-23T20:18:51.042Z,42.77
2019-03-23T20:21:19.487Z,47.37
2019-03-23T20:23:47.901Z,37.50
2019-03-23T20:26:16.339Z,40.40
2019-03-23T20:28:44.754Z,37.07
2019-03-23T20:31:13.198Z,40.53
2019-03-23T20:33:41.607Z,43.37
2019-03-23T20:36:10.043Z,41.07
2019-03-23T20:38:38.450Z,40.83
2019-03-23T20:41:06.889Z,41.13
2019-03-23T20:43:35.307Z,46.40
2019-03-23T20:46:03.750Z,41.83
2019-03-23T20:48:32.161Z,44.83
2019-03-23T20:51:00.779Z,45.03
2019-03-23T20:53:29.189Z,41.77
2019-03-23T20:55:57.632Z,43.87
2019-03-23T20:58:26.042Z,39.70
2019-03-23T21:00:54.493Z,48.23
2019-03-23T21:03:22.913Z,40.47
2019-03-23T21:05:51.359Z,40.20
2019-03-23T21:08:19.774Z,42.23
2019-03-23T21:10:48.220Z,46.80
2019-03-23T21:13:16.635Z,48.60
2019-03-23T21:15:45.052Z,44.67
2019-03-23T21:18:13.489Z,42.70
2019-03-23T21:20:41.900Z,45.13
2019-03-23T21:23:10.339Z,45.33
2019-03-23T21:25:38.754Z,47.23
2019-03-23T21:28:07.196Z,39.10
2019-03-23T21:30:35.608Z,42.13
2019-03-23T21:33:04.113Z,41.33
2019-03-23T21:35:32.524Z,42.80
2019-03-23T21:38:00.968Z,43.07
2019-03-23T21:40:29.378Z,42.93
2019-03-23T21:42:57.822Z,47.00
2019-03-23T21:45:26.241Z,56.30
2019-03-23T21:47:54.680Z,46.40
2019-03-23T21:50:23.088Z,43.17
2019-03-23T21:52:51.598Z,43.03
2019-03-23T21:55:20.083Z,44.43
2019-03-23T21:57:48.520Z,44.70
2019-03-23T22:00:20.103Z,42.33
2019-03-23T22:02:48.544Z,49.43
2019-03-23T22:05:16.969Z,48.13
2019-03-23T22:07:45.450Z,46.77
2019-03-23T22:10:13.966Z,43.67
2019-03-23T22:12:42.378Z,48.87
2019-03-23T22:15:11.067Z,42.00
2019-03-23T22:17:39.473Z,46.87
2019-03-23T22:20:08.690Z,49.57
2019-03-23T22:22:37.171Z,47.90
2019-03-23T22:25:06.843Z,51.97
2019-03-23T22:27:36.893Z,43.23
2019-03-23T22:30:11.443Z,49.53
2019-03-23T22:32:39.867Z,45.60
2019-03-23T22:35:09.249Z,47.50
2019-03-23T22:37:37.655Z,46.47
2019-03-23T22:40:08.603Z,44.03
2019-03-23T22:42:37.012Z,49.13
2019-03-23T22:45:08.772Z,48.20
2019-03-23T22:47:37.254Z,52.47
2019-03-23T22:50:08.869Z,48.00
2019-03-23T22:52:37.357Z,50.90
2019-03-23T22:55:06.768Z,48.13
2019-03-23T22:57:35.187Z,47.37
2019-03-23T23:00:05.266Z,57.43
2019-03-23T23:02:33.676Z,42.13
2019-03-23T23:05:02.113Z,45.97
2019-03-23T23:07:30.600Z,47.90
2019-03-23T23:09:59.035Z,45.07
2019-03-23T23:12:27.454Z,51.90
2019-03-23T23:15:03.930Z,55.37
2019-03-23T23:17:26.015Z,46.03
2019-03-23T23:19:54.464Z,44.50
2019-03-23T23:22:22.877Z,45.03
2019-03-23T23:24:51.315Z,45.70
2019-03-23T23:27:19.727Z,49.03
2019-03-23T23:29:48.167Z,44.07
2019-03-23T23:32:16.587Z,47.33
2019-03-23T23:34:45.028Z,45.03
2019-03-23T23:37:13.447Z,42.97
2019-03-23T23:39:41.900Z,42.77
2019-03-23T23:42:10.319Z,45.47
2019-03-23T23:44:38.728Z,44.20
2019-03-23T23:47:07.170Z,48.07
2019-03-23T23:49:35.651Z,48.20
2019-03-23T23:52:04.156Z,48.60
2019-03-23T23:54:32.569Z,44.20
2019-03-23T23:57:01.017Z,47.50
2019-03-23T23:59:29.434Z,46.80
